sensor_id;sensor_type;location;lat;lon;timestamp;temperature;humidity
75961;SHT30;64644;48.914;2.254;2024-02-28T00:02:09;8.39;68.75
75961;SHT30;64644;48.914;2.254;2024-02-28T00:04:34;8.36;68.82
75961;SHT30;64644;48.914;2.254;2024-02-28T00:06:59;8.34;68.88
75961;SHT30;64644;48.914;2.254;2024-02-28T00:09:25;8.34;68.89
75961;SHT30;64644;48.914;2.254;2024-02-28T00:11:51;8.30;68.95
75961;SHT30;64644;48.914;2.254;2024-02-28T00:14:16;8.29;68.92
75961;SHT30;64644;48.914;2.254;2024-02-28T00:16:42;8.28;69.02
75961;SHT30;64644;48.914;2.254;2024-02-28T00:19:08;8.25;69.06
75961;SHT30;64644;48.914;2.254;2024-02-28T00:21:34;8.25;69.12
75961;SHT30;64644;48.914;2.254;2024-02-28T00:23:59;8.26;69.13
75961;SHT30;64644;48.914;2.254;2024-02-28T00:26:25;8.22;69.20
75961;SHT30;64644;48.914;2.254;2024-02-28T00:28:50;8.22;69.22
75961;SHT30;64644;48.914;2.254;2024-02-28T00:31:16;8.25;69.29
75961;SHT30;64644;48.914;2.254;2024-02-28T00:33:41;8.26;69.33
75961;SHT30;64644;48.914;2.254;2024-02-28T00:36:06;8.23;69.34
75961;SHT30;64644;48.914;2.254;2024-02-28T00:38:32;8.22;69.29
75961;SHT30;64644;48.914;2.254;2024-02-28T00:40:57;8.17;69.27
75961;SHT30;64644;48.914;2.254;2024-02-28T00:43:22;8.19;69.39
75961;SHT30;64644;48.914;2.254;2024-02-28T00:45:48;8.14;69.40
75961;SHT30;64644;48.914;2.254;2024-02-28T00:48:14;8.12;69.39
75961;SHT30;64644;48.914;2.254;2024-02-28T00:50:39;8.09;69.43
75961;SHT30;64644;48.914;2.254;2024-02-28T00:53:04;8.14;69.52
75961;SHT30;64644;48.914;2.254;2024-02-28T00:55:30;8.13;69.53
75961;SHT30;64644;48.914;2.254;2024-02-28T00:57:55;8.12;69.54
75961;SHT30;64644;48.914;2.254;2024-02-28T01:00:20;8.10;69.56
75961;SHT30;64644;48.914;2.254;2024-02-28T01:02:46;8.12;69.59
75961;SHT30;64644;48.914;2.254;2024-02-28T01:05:11;8.07;69.61
75961;SHT30;64644;48.914;2.254;2024-02-28T01:07:36;8.03;69.58
75961;SHT30;64644;48.914;2.254;2024-02-28T01:10:03;8.05;69.61
75961;SHT30;64644;48.914;2.254;2024-02-28T01:12:29;8.01;69.69
75961;SHT30;64644;48.914;2.254;2024-02-28T01:14:54;8.01;69.72
75961;SHT30;64644;48.914;2.254;2024-02-28T01:17:20;7.99;69.75
75961;SHT30;64644;48.914;2.254;2024-02-28T01:19:45;7.99;69.88
75961;SHT30;64644;48.914;2.254;2024-02-28T01:22:10;7.99;69.89
75961;SHT30;64644;48.914;2.254;2024-02-28T01:24:35;7.95;69.85
75961;SHT30;64644;48.914;2.254;2024-02-28T01:27:02;7.95;69.94
75961;SHT30;64644;48.914;2.254;2024-02-28T01:29:28;7.95;69.96
75961;SHT30;64644;48.914;2.254;2024-02-28T01:31:53;7.95;69.93
75961;SHT30;64644;48.914;2.254;2024-02-28T01:34:19;7.89;69.96
75961;SHT30;64644;48.914;2.254;2024-02-28T01:36:44;7.91;69.97
75961;SHT30;64644;48.914;2.254;2024-02-28T01:39:10;7.91;69.97
75961;SHT30;64644;48.914;2.254;2024-02-28T01:41:35;7.89;70.01
75961;SHT30;64644;48.914;2.254;2024-02-28T01:44:00;7.88;70.08
75961;SHT30;64644;48.914;2.254;2024-02-28T01:46:26;7.84;70.08
75961;SHT30;64644;48.914;2.254;2024-02-28T01:48:55;7.82;70.05
75961;SHT30;64644;48.914;2.254;2024-02-28T01:51:23;7.79;70.13
75961;SHT30;64644;48.914;2.254;2024-02-28T01:53:50;7.77;70.09
75961;SHT30;64644;48.914;2.254;2024-02-28T01:56:16;7.73;70.08
75961;SHT30;64644;48.914;2.254;2024-02-28T01:58:44;7.70;70.17
75961;SHT30;64644;48.914;2.254;2024-02-28T02:01:12;7.70;70.21
75961;SHT30;64644;48.914;2.254;2024-02-28T02:03:38;7.67;70.26
75961;SHT30;64644;48.914;2.254;2024-02-28T02:06:04;7.64;70.29
75961;SHT30;64644;48.914;2.254;2024-02-28T02:08:30;7.58;70.27
75961;SHT30;64644;48.914;2.254;2024-02-28T02:10:56;7.54;70.30
75961;SHT30;64644;48.914;2.254;2024-02-28T02:13:22;7.49;70.40
75961;SHT30;64644;48.914;2.254;2024-02-28T02:15:47;7.47;70.57
75961;SHT30;64644;48.914;2.254;2024-02-28T02:18:12;7.50;70.67
75961;SHT30;64644;48.914;2.254;2024-02-28T02:20:43;7.46;70.67
75961;SHT30;64644;48.914;2.254;2024-02-28T02:23:09;7.47;70.66
75961;SHT30;64644;48.914;2.254;2024-02-28T02:25:43;7.43;70.72
75961;SHT30;64644;48.914;2.254;2024-02-28T02:28:08;7.44;70.73
75961;SHT30;64644;48.914;2.254;2024-02-28T02:30:34;7.42;70.74
75961;SHT30;64644;48.914;2.254;2024-02-28T02:32:59;7.40;70.79
75961;SHT30;64644;48.914;2.254;2024-02-28T02:35:24;7.34;70.79
75961;SHT30;64644;48.914;2.254;2024-02-28T02:37:50;7.32;70.81
75961;SHT30;64644;48.914;2.254;2024-02-28T02:40:15;7.32;70.81
75961;SHT30;64644;48.914;2.254;2024-02-28T02:42:40;7.27;70.87
75961;SHT30;64644;48.914;2.254;2024-02-28T02:45:06;7.24;70.93
75961;SHT30;64644;48.914;2.254;2024-02-28T02:47:31;7.26;71.03
75961;SHT30;64644;48.914;2.254;2024-02-28T02:49:57;7.27;71.11
75961;SHT30;64644;48.914;2.254;2024-02-28T02:52:22;7.29;71.16
75961;SHT30;64644;48.914;2.254;2024-02-28T02:54:47;7.23;71.14
75961;SHT30;64644;48.914;2.254;2024-02-28T02:57:13;7.22;71.24
75961;SHT30;64644;48.914;2.254;2024-02-28T02:59:38;7.23;71.29
75961;SHT30;64644;48.914;2.254;2024-02-28T03:02:04;7.23;71.38
75961;SHT30;64644;48.914;2.254;2024-02-28T03:04:29;7.27;71.42
75961;SHT30;64644;48.914;2.254;2024-02-28T03:06:54;7.24;71.43
75961;SHT30;64644;48.914;2.254;2024-02-28T03:09:21;7.23;71.35
75961;SHT30;64644;48.914;2.254;2024-02-28T03:11:46;7.22;71.26
75961;SHT30;64644;48.914;2.254;2024-02-28T03:14:11;7.19;71.24
75961;SHT30;64644;48.914;2.254;2024-02-28T03:16:41;7.15;71.29
75961;SHT30;64644;48.914;2.254;2024-02-28T03:19:06;7.11;71.42
75961;SHT30;64644;48.914;2.254;2024-02-28T03:21:32;7.12;71.45
75961;SHT30;64644;48.914;2.254;2024-02-28T03:23:57;7.13;71.51
75961;SHT30;64644;48.914;2.254;2024-02-28T03:26:22;7.15;71.52
75961;SHT30;64644;48.914;2.254;2024-02-28T03:28:48;7.15;71.57
75961;SHT30;64644;48.914;2.254;2024-02-28T03:31:13;7.12;71.57
75961;SHT30;64644;48.914;2.254;2024-02-28T03:33:39;7.12;71.58
75961;SHT30;64644;48.914;2.254;2024-02-28T03:36:04;7.06;71.48
75961;SHT30;64644;48.914;2.254;2024-02-28T03:38:29;7.05;71.46
75961;SHT30;64644;48.914;2.254;2024-02-28T03:40:55;7.04;71.54
75961;SHT30;64644;48.914;2.254;2024-02-28T03:43:20;7.04;71.65
75961;SHT30;64644;48.914;2.254;2024-02-28T03:45:45;7.02;71.65
75961;SHT30;64644;48.914;2.254;2024-02-28T03:48:11;7.04;71.64
75961;SHT30;64644;48.914;2.254;2024-02-28T03:50:36;6.96;71.68
75961;SHT30;64644;48.914;2.254;2024-02-28T03:53:02;6.98;71.70
75961;SHT30;64644;48.914;2.254;2024-02-28T03:55:28;6.95;71.66
75961;SHT30;64644;48.914;2.254;2024-02-28T03:57:53;6.95;71.64
75961;SHT30;64644;48.914;2.254;2024-02-28T04:00:19;6.89;71.71
75961;SHT30;64644;48.914;2.254;2024-02-28T04:02:44;6.84;71.71
75961;SHT30;64644;48.914;2.254;2024-02-28T04:05:09;6.81;71.81
75961;SHT30;64644;48.914;2.254;2024-02-28T04:07:35;6.85;71.95
75961;SHT30;64644;48.914;2.254;2024-02-28T04:10:00;6.87;72.07
75961;SHT30;64644;48.914;2.254;2024-02-28T04:12:25;6.87;72.07
75961;SHT30;64644;48.914;2.254;2024-02-28T04:14:51;6.80;72.01
75961;SHT30;64644;48.914;2.254;2024-02-28T04:17:16;6.78;72.10
75961;SHT30;64644;48.914;2.254;2024-02-28T04:19:41;6.80;72.23
75961;SHT30;64644;48.914;2.254;2024-02-28T04:22:07;6.78;72.31
75961;SHT30;64644;48.914;2.254;2024-02-28T04:24:32;6.81;72.30
75961;SHT30;64644;48.914;2.254;2024-02-28T04:26:58;6.83;72.29
75961;SHT30;64644;48.914;2.254;2024-02-28T04:29:25;6.81;72.28
75961;SHT30;64644;48.914;2.254;2024-02-28T04:31:50;6.81;72.40
75961;SHT30;64644;48.914;2.254;2024-02-28T04:34:15;6.85;72.41
75961;SHT30;64644;48.914;2.254;2024-02-28T04:36:41;6.81;72.36
75961;SHT30;64644;48.914;2.254;2024-02-28T04:39:06;6.84;72.29
75961;SHT30;64644;48.914;2.254;2024-02-28T04:41:33;6.80;72.18
75961;SHT30;64644;48.914;2.254;2024-02-28T04:43:59;6.77;72.21
75961;SHT30;64644;48.914;2.254;2024-02-28T04:46:24;6.77;72.17
75961;SHT30;64644;48.914;2.254;2024-02-28T04:48:50;6.74;72.23
75961;SHT30;64644;48.914;2.254;2024-02-28T04:51:16;6.73;72.35
75961;SHT30;64644;48.914;2.254;2024-02-28T04:53:44;6.70;72.37
75961;SHT30;64644;48.914;2.254;2024-02-28T04:56:09;6.76;72.44
75961;SHT30;64644;48.914;2.254;2024-02-28T04:58:36;6.76;72.49
75961;SHT30;64644;48.914;2.254;2024-02-28T05:01:01;6.74;72.43
75961;SHT30;64644;48.914;2.254;2024-02-28T05:03:26;6.71;72.31
75961;SHT30;64644;48.914;2.254;2024-02-28T05:05:52;6.67;72.31
75961;SHT30;64644;48.914;2.254;2024-02-28T05:08:19;6.66;72.34
75961;SHT30;64644;48.914;2.254;2024-02-28T05:10:45;6.61;72.42
75961;SHT30;64644;48.914;2.254;2024-02-28T05:13:11;6.61;72.52
75961;SHT30;64644;48.914;2.254;2024-02-28T05:15:36;6.61;72.64
75961;SHT30;64644;48.914;2.254;2024-02-28T05:18:01;6.66;72.70
75961;SHT30;64644;48.914;2.254;2024-02-28T05:20:27;6.70;72.68
75961;SHT30;64644;48.914;2.254;2024-02-28T05:22:52;6.68;72.60
75961;SHT30;64644;48.914;2.254;2024-02-28T05:25:18;6.66;72.52
75961;SHT30;64644;48.914;2.254;2024-02-28T05:27:43;6.63;72.54
75961;SHT30;64644;48.914;2.254;2024-02-28T05:30:09;6.64;72.57
75961;SHT30;64644;48.914;2.254;2024-02-28T05:32:34;6.67;72.67
75961;SHT30;64644;48.914;2.254;2024-02-28T05:35:00;6.71;72.68
75961;SHT30;64644;48.914;2.254;2024-02-28T05:37:25;6.71;72.67
75961;SHT30;64644;48.914;2.254;2024-02-28T05:39:51;6.71;72.56
75961;SHT30;64644;48.914;2.254;2024-02-28T05:42:17;6.73;72.58
75961;SHT30;64644;48.914;2.254;2024-02-28T05:44:47;6.71;72.60
75961;SHT30;64644;48.914;2.254;2024-02-28T05:47:13;6.73;72.58
75961;SHT30;64644;48.914;2.254;2024-02-28T05:49:39;6.73;72.59
75961;SHT30;64644;48.914;2.254;2024-02-28T05:52:05;6.74;72.64
75961;SHT30;64644;48.914;2.254;2024-02-28T05:54:30;6.77;72.68
75961;SHT30;64644;48.914;2.254;2024-02-28T05:56:56;6.77;72.79
75961;SHT30;64644;48.914;2.254;2024-02-28T05:59:21;6.85;72.90
75961;SHT30;64644;48.914;2.254;2024-02-28T06:01:46;6.88;73.00
75961;SHT30;64644;48.914;2.254;2024-02-28T06:04:12;6.88;72.93
75961;SHT30;64644;48.914;2.254;2024-02-28T06:06:38;6.96;72.98
75961;SHT30;64644;48.914;2.254;2024-02-28T06:09:03;7.01;73.01
75961;SHT30;64644;48.914;2.254;2024-02-28T06:11:28;7.06;73.07
75961;SHT30;64644;48.914;2.254;2024-02-28T06:13:54;7.09;73.04
75961;SHT30;64644;48.914;2.254;2024-02-28T06:16:19;7.15;72.98
75961;SHT30;64644;48.914;2.254;2024-02-28T06:18:45;7.16;72.90
75961;SHT30;64644;48.914;2.254;2024-02-28T06:21:10;7.16;72.77
75961;SHT30;64644;48.914;2.254;2024-02-28T06:23:35;7.15;72.73
75961;SHT30;64644;48.914;2.254;2024-02-28T06:26:01;7.18;72.75
75961;SHT30;64644;48.914;2.254;2024-02-28T06:28:26;7.19;72.71
75961;SHT30;64644;48.914;2.254;2024-02-28T06:30:52;7.19;72.71
75961;SHT30;64644;48.914;2.254;2024-02-28T06:33:17;7.23;72.72
75961;SHT30;64644;48.914;2.254;2024-02-28T06:35:43;7.23;72.66
75961;SHT30;64644;48.914;2.254;2024-02-28T06:38:09;7.22;72.66
75961;SHT30;64644;48.914;2.254;2024-02-28T06:40:34;7.26;72.61
75961;SHT30;64644;48.914;2.254;2024-02-28T06:43:00;7.24;72.58
75961;SHT30;64644;48.914;2.254;2024-02-28T06:45:26;7.27;72.56
75961;SHT30;64644;48.914;2.254;2024-02-28T06:47:51;7.33;72.58
75961;SHT30;64644;48.914;2.254;2024-02-28T06:50:17;7.32;72.56
75961;SHT30;64644;48.914;2.254;2024-02-28T06:52:42;7.36;72.56
75961;SHT30;64644;48.914;2.254;2024-02-28T06:55:09;7.34;72.48
75961;SHT30;64644;48.914;2.254;2024-02-28T06:57:41;7.36;72.41
75961;SHT30;64644;48.914;2.254;2024-02-28T07:00:08;7.37;72.37
75961;SHT30;64644;48.914;2.254;2024-02-28T07:02:37;7.42;72.36
75961;SHT30;64644;48.914;2.254;2024-02-28T07:05:03;7.43;72.33
75961;SHT30;64644;48.914;2.254;2024-02-28T07:07:30;7.47;72.33
75961;SHT30;64644;48.914;2.254;2024-02-28T07:09:56;7.49;72.37
75961;SHT30;64644;48.914;2.254;2024-02-28T07:12:21;7.53;72.36
75961;SHT30;64644;48.914;2.254;2024-02-28T07:14:47;7.56;72.39
75961;SHT30;64644;48.914;2.254;2024-02-28T07:17:12;7.58;72.35
75961;SHT30;64644;48.914;2.254;2024-02-28T07:19:37;7.66;72.35
75961;SHT30;64644;48.914;2.254;2024-02-28T07:22:03;7.66;72.20
75961;SHT30;64644;48.914;2.254;2024-02-28T07:24:30;7.66;72.20
75961;SHT30;64644;48.914;2.254;2024-02-28T07:26:56;7.68;72.20
75961;SHT30;64644;48.914;2.254;2024-02-28T07:29:22;7.73;72.25
75961;SHT30;64644;48.914;2.254;2024-02-28T07:31:49;7.78;72.32
75961;SHT30;64644;48.914;2.254;2024-02-28T07:34:14;7.86;72.32
75961;SHT30;64644;48.914;2.254;2024-02-28T07:36:40;7.92;72.30
75961;SHT30;64644;48.914;2.254;2024-02-28T07:39:05;7.98;72.15
75961;SHT30;64644;48.914;2.254;2024-02-28T07:41:30;8.01;72.12
75961;SHT30;64644;48.914;2.254;2024-02-28T07:43:57;8.05;72.12
75961;SHT30;64644;48.914;2.254;2024-02-28T07:46:22;8.05;72.14
75961;SHT30;64644;48.914;2.254;2024-02-28T07:48:48;8.09;72.09
75961;SHT30;64644;48.914;2.254;2024-02-28T07:51:13;8.07;71.88
75961;SHT30;64644;48.914;2.254;2024-02-28T07:53:38;8.07;71.76
75961;SHT30;64644;48.914;2.254;2024-02-28T07:56:04;8.07;71.81
75961;SHT30;64644;48.914;2.254;2024-02-28T07:58:29;8.09;71.82
75961;SHT30;64644;48.914;2.254;2024-02-28T08:00:54;8.13;71.82
75961;SHT30;64644;48.914;2.254;2024-02-28T08:03:20;8.17;71.86
75961;SHT30;64644;48.914;2.254;2024-02-28T08:05:46;8.23;71.87
75961;SHT30;64644;48.914;2.254;2024-02-28T08:08:12;8.26;71.83
75961;SHT30;64644;48.914;2.254;2024-02-28T08:10:38;8.30;71.72
75961;SHT30;64644;48.914;2.254;2024-02-28T08:13:06;8.36;71.67
75961;SHT30;64644;48.914;2.254;2024-02-28T08:15:32;8.39;71.68
75961;SHT30;64644;48.914;2.254;2024-02-28T08:17:58;8.41;71.62
75961;SHT30;64644;48.914;2.254;2024-02-28T08:20:23;8.47;71.59
75961;SHT30;64644;48.914;2.254;2024-02-28T08:22:49;8.53;71.51
75961;SHT30;64644;48.914;2.254;2024-02-28T08:25:15;8.60;71.46
75961;SHT30;64644;48.914;2.254;2024-02-28T08:27:41;8.65;71.44
75961;SHT30;64644;48.914;2.254;2024-02-28T08:30:07;8.67;71.32
75961;SHT30;64644;48.914;2.254;2024-02-28T08:32:32;8.68;71.08
75961;SHT30;64644;48.914;2.254;2024-02-28T08:34:58;8.71;71.08
75961;SHT30;64644;48.914;2.254;2024-02-28T08:37:24;8.71;70.91
75961;SHT30;64644;48.914;2.254;2024-02-28T08:39:49;8.75;70.85
75961;SHT30;64644;48.914;2.254;2024-02-28T08:42:15;8.81;70.98
75961;SHT30;64644;48.914;2.254;2024-02-28T08:44:40;8.85;70.98
75961;SHT30;64644;48.914;2.254;2024-02-28T08:47:05;8.91;70.99
75961;SHT30;64644;48.914;2.254;2024-02-28T08:49:34;8.95;70.92
75961;SHT30;64644;48.914;2.254;2024-02-28T08:52:00;8.99;70.84
75961;SHT30;64644;48.914;2.254;2024-02-28T08:54:26;9.05;70.70
75961;SHT30;64644;48.914;2.254;2024-02-28T08:56:51;9.10;70.70
75961;SHT30;64644;48.914;2.254;2024-02-28T08:59:16;9.17;70.62
75961;SHT30;64644;48.914;2.254;2024-02-28T09:01:42;9.19;70.52
75961;SHT30;64644;48.914;2.254;2024-02-28T09:04:07;9.22;70.51
75961;SHT30;64644;48.914;2.254;2024-02-28T09:06:32;9.27;70.52
75961;SHT30;64644;48.914;2.254;2024-02-28T09:08:58;9.36;70.45
75961;SHT30;64644;48.914;2.254;2024-02-28T09:11:23;9.45;70.40
75961;SHT30;64644;48.914;2.254;2024-02-28T09:13:50;9.57;70.37
75961;SHT30;64644;48.914;2.254;2024-02-28T09:16:15;9.67;70.27
75961;SHT30;64644;48.914;2.254;2024-02-28T09:18:40;9.67;70.04
75961;SHT30;64644;48.914;2.254;2024-02-28T09:21:08;9.71;69.93
75961;SHT30;64644;48.914;2.254;2024-02-28T09:23:33;9.78;70.04
75961;SHT30;64644;48.914;2.254;2024-02-28T09:26:03;9.88;69.99
75961;SHT30;64644;48.914;2.254;2024-02-28T09:28:28;10.00;70.03
75961;SHT30;64644;48.914;2.254;2024-02-28T09:30:54;10.12;69.99
75961;SHT30;64644;48.914;2.254;2024-02-28T09:33:19;10.24;69.77
75961;SHT30;64644;48.914;2.254;2024-02-28T09:35:44;10.32;69.59
75961;SHT30;64644;48.914;2.254;2024-02-28T09:38:10;10.41;69.52
75961;SHT30;64644;48.914;2.254;2024-02-28T09:40:36;10.57;69.43
75961;SHT30;64644;48.914;2.254;2024-02-28T09:43:02;10.67;69.13
75961;SHT30;64644;48.914;2.254;2024-02-28T09:45:29;10.83;69.04
75961;SHT30;64644;48.914;2.254;2024-02-28T09:47:59;11.03;68.84
75961;SHT30;64644;48.914;2.254;2024-02-28T09:50:26;11.22;68.90
75961;SHT30;64644;48.914;2.254;2024-02-28T09:52:53;11.28;68.62
75961;SHT30;64644;48.914;2.254;2024-02-28T09:55:19;11.31;68.20
75961;SHT30;64644;48.914;2.254;2024-02-28T09:57:47;11.37;68.15
75961;SHT30;64644;48.914;2.254;2024-02-28T10:00:13;11.34;68.00
75961;SHT30;64644;48.914;2.254;2024-02-28T10:02:41;11.31;67.56
75961;SHT30;64644;48.914;2.254;2024-02-28T10:05:08;11.34;67.35
75961;SHT30;64644;48.914;2.254;2024-02-28T10:07:34;11.42;67.30
75961;SHT30;64644;48.914;2.254;2024-02-28T10:09:59;11.54;67.10
75961;SHT30;64644;48.914;2.254;2024-02-28T10:12:24;11.62;67.04
75961;SHT30;64644;48.914;2.254;2024-02-28T10:14:50;11.75;67.06
75961;SHT30;64644;48.914;2.254;2024-02-28T10:17:16;11.82;67.09
75961;SHT30;64644;48.914;2.254;2024-02-28T10:19:41;11.89;67.27
75961;SHT30;64644;48.914;2.254;2024-02-28T10:22:07;11.79;66.96
75961;SHT30;64644;48.914;2.254;2024-02-28T10:24:33;11.81;66.51
75961;SHT30;64644;48.914;2.254;2024-02-28T10:27:01;11.86;66.61
75961;SHT30;64644;48.914;2.254;2024-02-28T10:29:26;11.83;66.38
75961;SHT30;64644;48.914;2.254;2024-02-28T10:31:56;11.85;66.17
75961;SHT30;64644;48.914;2.254;2024-02-28T10:34:22;11.82;66.22
75961;SHT30;64644;48.914;2.254;2024-02-28T10:36:48;11.81;65.91
75961;SHT30;64644;48.914;2.254;2024-02-28T10:39:14;11.85;65.81
75961;SHT30;64644;48.914;2.254;2024-02-28T10:41:40;11.87;65.92
75961;SHT30;64644;48.914;2.254;2024-02-28T10:44:05;11.85;66.03
75961;SHT30;64644;48.914;2.254;2024-02-28T10:46:31;11.85;65.91
75961;SHT30;64644;48.914;2.254;2024-02-28T10:48:57;11.85;65.73
75961;SHT30;64644;48.914;2.254;2024-02-28T10:51:24;11.87;65.72
75961;SHT30;64644;48.914;2.254;2024-02-28T10:54:08;11.89;65.92
75961;SHT30;64644;48.914;2.254;2024-02-28T10:56:35;11.81;65.73
75961;SHT30;64644;48.914;2.254;2024-02-28T10:59:01;11.75;65.52
75961;SHT30;64644;48.914;2.254;2024-02-28T11:01:26;11.72;65.41
75961;SHT30;64644;48.914;2.254;2024-02-28T11:03:53;11.69;65.45
75961;SHT30;64644;48.914;2.254;2024-02-28T11:06:20;11.67;65.52
75961;SHT30;64644;48.914;2.254;2024-02-28T11:08:49;11.65;65.42
75961;SHT30;64644;48.914;2.254;2024-02-28T11:11:18;11.59;65.31
75961;SHT30;64644;48.914;2.254;2024-02-28T11:13:55;11.64;65.45
75961;SHT30;64644;48.914;2.254;2024-02-28T11:16:27;11.65;65.55
75961;SHT30;64644;48.914;2.254;2024-02-28T11:18:53;11.67;65.54
75961;SHT30;64644;48.914;2.254;2024-02-28T11:21:18;11.74;65.81
75961;SHT30;64644;48.914;2.254;2024-02-28T11:23:47;11.75;65.84
75961;SHT30;64644;48.914;2.254;2024-02-28T11:26:15;11.79;65.82
75961;SHT30;64644;48.914;2.254;2024-02-28T11:28:41;11.82;65.84
75961;SHT30;64644;48.914;2.254;2024-02-28T11:31:06;11.81;65.78
75961;SHT30;64644;48.914;2.254;2024-02-28T11:33:32;11.81;65.89
75961;SHT30;64644;48.914;2.254;2024-02-28T11:36:03;11.81;65.86
75961;SHT30;64644;48.914;2.254;2024-02-28T11:38:29;11.78;65.87
75961;SHT30;64644;48.914;2.254;2024-02-28T11:40:54;11.78;65.92
75961;SHT30;64644;48.914;2.254;2024-02-28T11:43:22;11.75;65.89
75961;SHT30;64644;48.914;2.254;2024-02-28T11:45:48;11.76;65.88
75961;SHT30;64644;48.914;2.254;2024-02-28T11:48:14;11.81;65.94
75961;SHT30;64644;48.914;2.254;2024-02-28T11:50:39;11.85;65.99
75961;SHT30;64644;48.914;2.254;2024-02-28T11:53:05;11.87;66.08
75961;SHT30;64644;48.914;2.254;2024-02-28T11:55:31;11.93;66.13
75961;SHT30;64644;48.914;2.254;2024-02-28T11:57:57;12.00;66.17
75961;SHT30;64644;48.914;2.254;2024-02-28T12:00:22;12.06;66.15
75961;SHT30;64644;48.914;2.254;2024-02-28T12:02:48;12.07;66.21
75961;SHT30;64644;48.914;2.254;2024-02-28T12:05:13;12.03;66.19
75961;SHT30;64644;48.914;2.254;2024-02-28T12:07:39;11.96;65.98
75961;SHT30;64644;48.914;2.254;2024-02-28T12:10:04;11.93;65.94
75961;SHT30;64644;48.914;2.254;2024-02-28T12:12:31;11.90;65.97
75961;SHT30;64644;48.914;2.254;2024-02-28T12:14:58;11.92;65.95
75961;SHT30;64644;48.914;2.254;2024-02-28T12:17:25;11.90;65.99
75961;SHT30;64644;48.914;2.254;2024-02-28T12:19:51;11.87;65.91
75961;SHT30;64644;48.914;2.254;2024-02-28T12:22:16;11.92;66.01
75961;SHT30;64644;48.914;2.254;2024-02-28T12:24:41;12.04;65.99
75961;SHT30;64644;48.914;2.254;2024-02-28T12:27:07;12.17;66.03
75961;SHT30;64644;48.914;2.254;2024-02-28T12:29:32;12.34;65.94
75961;SHT30;64644;48.914;2.254;2024-02-28T12:31:58;12.42;65.66
75961;SHT30;64644;48.914;2.254;2024-02-28T12:34:23;12.59;65.53
75961;SHT30;64644;48.914;2.254;2024-02-28T12:36:48;12.76;65.47
75961;SHT30;64644;48.914;2.254;2024-02-28T12:39:14;12.93;65.32
75961;SHT30;64644;48.914;2.254;2024-02-28T12:41:39;13.07;65.18
75961;SHT30;64644;48.914;2.254;2024-02-28T12:44:05;13.21;64.88
75961;SHT30;64644;48.914;2.254;2024-02-28T12:46:31;13.31;64.65
75961;SHT30;64644;48.914;2.254;2024-02-28T12:48:56;13.47;64.49
75961;SHT30;64644;48.914;2.254;2024-02-28T12:51:39;13.59;64.10
75961;SHT30;64644;48.914;2.254;2024-02-28T12:54:06;13.68;63.87
75961;SHT30;64644;48.914;2.254;2024-02-28T12:56:32;13.75;63.86
75961;SHT30;64644;48.914;2.254;2024-02-28T12:58:58;13.83;63.76
75961;SHT30;64644;48.914;2.254;2024-02-28T13:01:24;13.82;63.22
75961;SHT30;64644;48.914;2.254;2024-02-28T13:03:50;13.83;63.05
75961;SHT30;64644;48.914;2.254;2024-02-28T13:06:15;13.92;62.97
75961;SHT30;64644;48.914;2.254;2024-02-28T13:08:40;13.98;62.69
75961;SHT30;64644;48.914;2.254;2024-02-28T13:11:05;13.96;62.81
75961;SHT30;64644;48.914;2.254;2024-02-28T13:13:32;13.89;62.50
75961;SHT30;64644;48.914;2.254;2024-02-28T13:15:58;13.92;62.43
75961;SHT30;64644;48.914;2.254;2024-02-28T13:18:23;13.89;62.13
75961;SHT30;64644;48.914;2.254;2024-02-28T13:20:50;13.92;62.44
75961;SHT30;64644;48.914;2.254;2024-02-28T13:23:16;13.85;62.17
75961;SHT30;64644;48.914;2.254;2024-02-28T13:25:41;13.76;61.84
75961;SHT30;64644;48.914;2.254;2024-02-28T13:28:07;13.81;61.94
75961;SHT30;64644;48.914;2.254;2024-02-28T13:30:32;13.75;61.88
75961;SHT30;64644;48.914;2.254;2024-02-28T13:33:00;13.78;61.65
75961;SHT30;64644;48.914;2.254;2024-02-28T13:35:25;13.76;61.79
75961;SHT30;64644;48.914;2.254;2024-02-28T13:37:50;13.76;61.77
75961;SHT30;64644;48.914;2.254;2024-02-28T13:40:18;13.71;61.61
75961;SHT30;64644;48.914;2.254;2024-02-28T13:42:43;13.65;61.56
75961;SHT30;64644;48.914;2.254;2024-02-28T13:45:10;13.53;61.33
75961;SHT30;64644;48.914;2.254;2024-02-28T13:47:36;13.45;61.28
75961;SHT30;64644;48.914;2.254;2024-02-28T13:50:02;13.40;61.46
75961;SHT30;64644;48.914;2.254;2024-02-28T13:52:28;13.37;61.48
75961;SHT30;64644;48.914;2.254;2024-02-28T13:54:53;13.36;61.60
75961;SHT30;64644;48.914;2.254;2024-02-28T13:57:19;13.33;61.64
75961;SHT30;64644;48.914;2.254;2024-02-28T13:59:44;13.37;61.88
75961;SHT30;64644;48.914;2.254;2024-02-28T14:02:14;13.31;61.91
75961;SHT30;64644;48.914;2.254;2024-02-28T14:04:39;13.26;61.93
75961;SHT30;64644;48.914;2.254;2024-02-28T14:07:06;13.23;61.94
75961;SHT30;64644;48.914;2.254;2024-02-28T14:09:32;13.26;62.12
75961;SHT30;64644;48.914;2.254;2024-02-28T14:11:57;13.26;62.16
75961;SHT30;64644;48.914;2.254;2024-02-28T14:14:23;13.27;62.21
75961;SHT30;64644;48.914;2.254;2024-02-28T14:16:48;13.21;62.24
75961;SHT30;64644;48.914;2.254;2024-02-28T14:19:13;13.10;62.12
75961;SHT30;64644;48.914;2.254;2024-02-28T14:21:39;13.02;62.12
75961;SHT30;64644;48.914;2.254;2024-02-28T14:24:05;13.03;62.32
75961;SHT30;64644;48.914;2.254;2024-02-28T14:26:31;13.06;62.51
75961;SHT30;64644;48.914;2.254;2024-02-28T14:28:56;13.10;62.65
75961;SHT30;64644;48.914;2.254;2024-02-28T14:31:22;13.07;62.64
75961;SHT30;64644;48.914;2.254;2024-02-28T14:33:47;13.07;62.71
75961;SHT30;64644;48.914;2.254;2024-02-28T14:36:13;13.10;62.90
75961;SHT30;64644;48.914;2.254;2024-02-28T14:38:39;13.13;62.89
75961;SHT30;64644;48.914;2.254;2024-02-28T14:41:04;13.17;63.02
75961;SHT30;64644;48.914;2.254;2024-02-28T14:43:30;13.20;63.01
75961;SHT30;64644;48.914;2.254;2024-02-28T14:45:55;13.17;63.01
75961;SHT30;64644;48.914;2.254;2024-02-28T14:48:21;13.21;63.02
75961;SHT30;64644;48.914;2.254;2024-02-28T14:50:47;13.23;63.12
75961;SHT30;64644;48.914;2.254;2024-02-28T14:53:12;13.19;63.08
75961;SHT30;64644;48.914;2.254;2024-02-28T14:55:38;13.16;63.02
75961;SHT30;64644;48.914;2.254;2024-02-28T14:58:04;13.17;63.05
75961;SHT30;64644;48.914;2.254;2024-02-28T15:00:29;13.19;63.11
75961;SHT30;64644;48.914;2.254;2024-02-28T15:02:55;13.19;63.16
75961;SHT30;64644;48.914;2.254;2024-02-28T15:05:20;13.23;63.33
75961;SHT30;64644;48.914;2.254;2024-02-28T15:07:46;13.19;63.28
75961;SHT30;64644;48.914;2.254;2024-02-28T15:10:11;13.16;63.24
75961;SHT30;64644;48.914;2.254;2024-02-28T15:12:38;13.11;63.13
75961;SHT30;64644;48.914;2.254;2024-02-28T15:15:06;13.13;63.24
75961;SHT30;64644;48.914;2.254;2024-02-28T15:17:31;13.09;63.25
75961;SHT30;64644;48.914;2.254;2024-02-28T15:19:57;13.10;63.38
75961;SHT30;64644;48.914;2.254;2024-02-28T15:22:23;13.10;63.39
75961;SHT30;64644;48.914;2.254;2024-02-28T15:24:48;13.07;63.36
75961;SHT30;64644;48.914;2.254;2024-02-28T15:27:13;13.09;63.42
75961;SHT30;64644;48.914;2.254;2024-02-28T15:29:39;13.11;63.43
75961;SHT30;64644;48.914;2.254;2024-02-28T15:32:05;13.11;63.49